Pagrindinis puslapis
METAR-TAF:

METAR-TAF

Oro uostai :

Grosetas, Italija

platuma: 42-45N, ilguma: 011-04E, Aukštis: 5 m

Dabartinis oras

Ataskaita buvo paskelbta 1 valandą ir 21 minutes, ne 19:55 UTC
Vėjas 2 kt iš Rytų
Temperatūra 9°C
Drėgmė 87%
Slėgis 1019 hPa
Matomumas: 8000 m

METAR: LIRS 271955Z 08002KT 8000 NSC 09/07 Q1019 RMK FEW FEW200 VIS MIN 8000 WIND THR 03 07002KT WIND THR21 08001KT BLU

Laikas: 22:16 (21:16 UTC)

Prognozė

Ataskaita buvo paskelbta 1 valandą ir 16 minutes, ne 20:00 UTC
Prognozė galioja nuo 27 metu 21 UTC su 28 metu 06 UTC
Vėjas 4 kt iš Rytų
Matomumas: 6000 m
Išsisklaidę debesys ne aukštis 2000 ft
Laikinai
nuo 27 metu 21 UTC su 28 metu 01 UTC
Matomumas: 3000 m
Išsisklaidę debesys ne aukštis 1000 ft
rūkana

TAF: LIRS 272000Z 2721/2806 08004KT 6000 SCT020 TEMPO 2721/2801 3000 BR SCT010

Orai ataskaitas ir orų prognozės (METAR, TAF).

turimą stotys yra geltonos ir raudonos taškus žemėlapyje.

Perkelti pele per norėdami pamatyti stoties vardą.

Tada spustelėkite, norėdami matyti oro stebėjimo ir prognozės.

Norėdami pakeisti žemėlapį: spustelėkite ant žalios mygtukų su juodo kryžiaus žemyn,; žalią mygtuką su brūkšneliu, jei norite nutolinti; arba žalių rodyklių gretimoms žemėlapius.


METAR-TAF: